Terminal Aerodrome Forecast
Issued by NWS

Home | Current Version | Previous Version | Text Only | Print | Product List | Glossary On
Versions: 1 2 3 4 5 6 7 8 9 10 11 12 13 14 15 16 17 18 19 20
000
FTUS43 KFGF 061120
TAFTVF
TAF
KTVF 061120Z 0612/0712 20020KT 2SM -SN OVC007
     FM061400 23016G24KT P6SM OVC008
      TEMPO 0614/0616 3/4SM -SN OVC003
     FM061600 25016G24KT 3/4SM -SN OVC008
     FM061800 29017G25KT 3/4SM -SN OVC008
     FM062200 30018G26KT 1SM -SN BLSN OVC008
     FM070300 28022G31KT 2SM -SN BLSN OVC008
     FM070500 28023G32KT 3SM -SN BLSN OVC010=

USA.gov is the U.S. government's official web portal to all federal, state and local government web resources and services.